Time,TemperatureF,DewpointF,PressureIn,WindDirection,WindDirectionDegrees,WindSpeedMPH,WindSpeedGustMPH,Humidity,HourlyPrecipIn,Conditions,Clouds,dailyrainin,SoftwareType,DateUTC
2013-02-03 00:11:00,41.9,39.7,29.79,WNW,292,1.7,-999.0,92,-99.99,,,0.00,Acu-Link.com,2013-02-03 05:11:00,
2013-02-03 00:26:00,41.5,39.9,29.79,SSE,157,3.7,-999.0,94,-99.99,,,0.00,Acu-Link.com,2013-02-03 05:26:00,
2013-02-03 00:41:00,41.5,40.2,29.78,West,270,1.7,-999.0,95,-99.99,,,0.00,Acu-Link.com,2013-02-03 05:41:00,
2013-02-03 00:57:00,41.4,39.5,29.77,West,270,0.0,-999.0,93,-99.99,,,0.00,Acu-Link.com,2013-02-03 05:57:00,
2013-02-03 01:12:00,41.2,37.9,29.76,NE,45,2.2,-999.0,88,-99.99,,,0.00,Acu-Link.com,2013-02-03 06:12:00,
2013-02-03 01:27:00,41.0,37.4,29.76,NNW,337,1.1,-999.0,87,-99.99,,,0.00,Acu-Link.com,2013-02-03 06:27:00,
2013-02-03 01:42:00,40.8,37.5,29.76,NW,315,1.1,-999.0,88,-99.99,,,0.00,Acu-Link.com,2013-02-03 06:42:00,
2013-02-03 01:58:00,40.6,37.9,29.75,NNW,337,2.2,-999.0,90,-99.99,,,0.00,Acu-Link.com,2013-02-03 06:58:00,
2013-02-03 02:13:00,40.5,38.4,29.75,NNW,337,2.2,-999.0,92,-99.99,,,0.00,Acu-Link.com,2013-02-03 07:13:00,
2013-02-03 02:28:00,40.1,38.2,29.75,West,270,1.7,-999.0,93,-99.99,,,0.00,Acu-Link.com,2013-02-03 07:28:00,
2013-02-03 02:44:00,39.7,38.1,29.75,NW,315,0.0,-999.0,94,-99.99,,,0.00,Acu-Link.com,2013-02-03 07:44:00,
2013-02-03 02:59:00,38.7,37.7,29.75,WNW,292,0.0,-999.0,96,-99.99,,,0.00,Acu-Link.com,2013-02-03 07:59:00,
2013-02-03 03:14:00,37.8,37.0,29.74,WSW,247,0.0,-999.0,97,-99.99,,,0.00,Acu-Link.com,2013-02-03 08:14:00,
2013-02-03 03:30:00,37.0,36.5,29.73,West,270,0.0,-999.0,98,-99.99,,,0.00,Acu-Link.com,2013-02-03 08:30:00,
2013-02-03 03:45:00,35.8,35.3,29.73,NW,315,0.0,-999.0,98,-99.99,,,0.00,Acu-Link.com,2013-02-03 08:45:00,
2013-02-03 04:00:00,34.7,34.2,29.72,NNW,337,0.0,-999.0,98,-99.99,,,0.00,Acu-Link.com,2013-02-03 09:00:00,
2013-02-03 04:15:00,33.8,33.3,29.72,NNE,22,0.0,-999.0,98,-99.99,,,0.00,Acu-Link.com,2013-02-03 09:15:00,
2013-02-03 04:31:00,33.3,32.8,29.72,NNE,22,0.0,-999.0,98,-99.99,,,0.00,Acu-Link.com,2013-02-03 09:31:00,
2013-02-03 04:46:00,33.4,32.9,29.72,NW,315,0.0,-999.0,98,-99.99,,,0.00,Acu-Link.com,2013-02-03 09:46:00,
2013-02-03 05:01:00,33.8,33.3,29.71,NW,315,0.0,-999.0,98,-99.99,,,0.00,Acu-Link.com,2013-02-03 10:01:00,
2013-02-03 05:17:00,34.2,33.7,29.71,West,270,0.0,-999.0,98,-99.99,,,0.00,Acu-Link.com,2013-02-03 10:17:00,
2013-02-03 05:32:00,34.9,34.4,29.71,West,270,0.0,-999.0,98,-99.99,,,0.00,Acu-Link.com,2013-02-03 10:32:00,
2013-02-03 05:47:00,35.6,35.1,29.71,West,270,0.0,-999.0,98,-99.99,,,0.00,Acu-Link.com,2013-02-03 10:47:00,
2013-02-03 06:03:00,36.0,35.5,29.71,NNW,337,0.0,-999.0,98,-99.99,,,0.00,Acu-Link.com,2013-02-03 11:03:00,
2013-02-03 06:18:00,36.3,35.8,29.71,West,270,0.0,-999.0,98,-99.99,,,0.00,Acu-Link.com,2013-02-03 11:18:00,
2013-02-03 06:33:00,36.7,36.2,29.70,SE,135,0.0,-999.0,98,-99.99,,,0.00,Acu-Link.com,2013-02-03 11:33:00,
2013-02-03 06:48:00,36.7,36.2,29.70,WNW,292,1.1,-999.0,98,-99.99,,,0.00,Acu-Link.com,2013-02-03 11:48:00,
2013-02-03 07:04:00,36.7,36.2,29.70,West,270,0.0,-999.0,98,-99.99,,,0.00,Acu-Link.com,2013-02-03 12:04:00,
2013-02-03 07:19:00,36.7,36.2,29.71,WNW,292,0.0,-999.0,98,-99.99,,,0.00,Acu-Link.com,2013-02-03 12:19:00,
2013-02-03 07:34:00,36.7,36.2,29.71,West,270,0.0,-999.0,98,-99.99,,,0.00,Acu-Link.com,2013-02-03 12:34:00,
2013-02-03 07:50:00,37.0,36.5,29.72,West,270,1.7,-999.0,98,-99.99,,,0.00,Acu-Link.com,2013-02-03 12:50:00,
2013-02-03 08:05:00,37.2,36.7,29.72,South,180,1.1,-999.0,98,-99.99,,,0.00,Acu-Link.com,2013-02-03 13:05:00,
2013-02-03 08:20:00,37.8,37.3,29.73,SW,225,0.0,-999.0,98,-99.99,,,0.00,Acu-Link.com,2013-02-03 13:20:00,
2013-02-03 08:36:00,38.1,37.6,29.72,West,270,2.7,-999.0,98,-99.99,,,0.00,Acu-Link.com,2013-02-03 13:36:00,
2013-02-03 08:51:00,38.3,37.8,29.72,West,270,2.7,-999.0,98,-99.99,,,0.00,Acu-Link.com,2013-02-03 13:51:00,
2013-02-03 09:06:00,40.1,38.8,29.72,NNW,337,2.7,-999.0,95,-99.99,,,0.00,Acu-Link.com,2013-02-03 14:06:00,
2013-02-03 09:21:00,42.6,38.4,29.71,West,270,2.2,-999.0,85,-99.99,,,0.00,Acu-Link.com,2013-02-03 14:21:00,
2013-02-03 09:37:00,42.6,36.6,29.72,North,0,3.2,-999.0,79,-99.99,,,0.00,Acu-Link.com,2013-02-03 14:37:00,
2013-02-03 09:52:00,44.8,35.6,29.72,North,0,3.7,-999.0,70,-99.99,,,0.00,Acu-Link.com,2013-02-03 14:52:00,
2013-02-03 10:07:00,43.7,32.7,29.73,NNW,337,2.7,-999.0,65,-99.99,,,0.00,Acu-Link.com,2013-02-03 15:07:00,
2013-02-03 10:23:00,44.2,31.6,29.73,ENE,67,0.0,-999.0,61,-99.99,,,0.00,Acu-Link.com,2013-02-03 15:23:00,
2013-02-03 10:38:00,43.9,31.3,29.73,WNW,292,4.2,-999.0,61,-99.99,,,0.00,Acu-Link.com,2013-02-03 15:38:00,
2013-02-03 10:53:00,43.5,31.4,29.72,SW,225,4.2,-999.0,62,-99.99,,,0.00,Acu-Link.com,2013-02-03 15:53:00,
2013-02-03 11:09:00,44.4,31.8,29.71,NNW,337,3.2,-999.0,61,-99.99,,,0.00,Acu-Link.com,2013-02-03 16:09:00,
2013-02-03 11:24:00,43.9,30.9,29.71,SW,225,2.2,-999.0,60,-99.99,,,0.00,Acu-Link.com,2013-02-03 16:24:00,
2013-02-03 11:39:00,44.1,31.1,29.70,North,0,3.7,-999.0,60,-99.99,,,0.00,Acu-Link.com,2013-02-03 16:39:00,
2013-02-03 11:55:00,44.6,31.6,29.70,NNE,22,1.7,-999.0,60,-99.99,,,0.00,Acu-Link.com,2013-02-03 16:55:00,
2013-02-03 12:10:00,45.5,31.2,29.70,SSW,202,1.7,-999.0,57,-99.99,,,0.00,Acu-Link.com,2013-02-03 17:10:00,
2013-02-03 12:25:00,46.4,32.0,29.69,WSW,247,4.7,-999.0,57,-99.99,,,0.00,Acu-Link.com,2013-02-03 17:25:00,
2013-02-03 12:41:00,45.1,31.6,29.69,NNW,337,2.2,-999.0,59,-99.99,,,0.00,Acu-Link.com,2013-02-03 17:41:00,
2013-02-03 12:56:00,46.0,31.6,29.68,NW,315,5.3,-999.0,57,-99.99,,,0.00,Acu-Link.com,2013-02-03 17:56:00,
2013-02-03 13:11:00,46.4,32.0,29.66,NNW,337,2.7,-999.0,57,-99.99,,,0.00,Acu-Link.com,2013-02-03 18:11:00,
2013-02-03 13:27:00,47.8,32.0,29.65,West,270,4.2,-999.0,54,-99.99,,,0.00,Acu-Link.com,2013-02-03 18:27:00,
2013-02-03 13:42:00,45.7,30.9,29.64,WSW,247,3.7,-999.0,56,-99.99,,,0.00,Acu-Link.com,2013-02-03 18:42:00,
2013-02-03 13:57:00,47.7,32.3,29.64,WNW,292,4.7,-999.0,55,-99.99,,,0.00,Acu-Link.com,2013-02-03 18:57:00,
2013-02-03 14:12:00,46.6,31.8,29.64,West,270,2.7,-999.0,56,-99.99,,,0.00,Acu-Link.com,2013-02-03 19:12:00,
2013-02-03 14:28:00,47.7,32.8,29.64,West,270,4.2,-999.0,56,-99.99,,,0.00,Acu-Link.com,2013-02-03 19:28:00,
2013-02-03 14:43:00,47.7,32.3,29.63,SW,225,2.2,-999.0,55,-99.99,,,0.00,Acu-Link.com,2013-02-03 19:43:00,
2013-02-03 14:58:00,47.5,32.1,29.63,South,180,6.3,-999.0,55,-99.99,,,0.00,Acu-Link.com,2013-02-03 19:58:00,
2013-02-03 15:14:00,47.8,32.0,29.63,NNW,337,5.3,-999.0,54,-99.99,,,0.00,Acu-Link.com,2013-02-03 20:14:00,
2013-02-03 15:29:00,47.8,32.4,29.64,South,180,4.7,-999.0,55,-99.99,,,0.00,Acu-Link.com,2013-02-03 20:29:00,
2013-02-03 15:44:00,47.8,33.3,29.64,SSW,202,2.7,-999.0,57,-99.99,,,0.00,Acu-Link.com,2013-02-03 20:44:00,
2013-02-03 16:00:00,48.0,33.1,29.64,NW,315,1.7,-999.0,56,-99.99,,,0.00,Acu-Link.com,2013-02-03 21:00:00,
2013-02-03 16:15:00,48.4,33.0,29.64,NNW,337,4.2,-999.0,55,-99.99,,,0.00,Acu-Link.com,2013-02-03 21:15:00,
2013-02-03 16:30:00,48.0,33.1,29.65,South,180,4.7,-999.0,56,-99.99,,,0.00,Acu-Link.com,2013-02-03 21:30:00,
2013-02-03 16:45:00,47.3,33.3,29.65,West,270,3.2,-999.0,58,-99.99,,,0.00,Acu-Link.com,2013-02-03 21:45:00,
2013-02-03 17:01:00,46.9,33.8,29.65,NNW,337,2.2,-999.0,60,-99.99,,,0.00,Acu-Link.com,2013-02-03 22:01:00,
2013-02-03 17:17:00,46.6,33.9,29.66,NNE,22,1.7,-999.0,61,-99.99,,,0.00,Acu-Link.com,2013-02-03 22:17:00,
2013-02-03 17:32:00,46.2,33.9,29.67,West,270,4.7,-999.0,62,-99.99,,,0.00,Acu-Link.com,2013-02-03 22:32:00,
2013-02-03 17:47:00,45.3,33.9,29.68,WNW,292,0.0,-999.0,64,-99.99,,,0.00,Acu-Link.com,2013-02-03 22:47:00,
2013-02-03 18:03:00,44.2,33.2,29.68,North,0,2.2,-999.0,65,-99.99,,,0.00,Acu-Link.com,2013-02-03 23:03:00,
2013-02-03 18:18:00,43.7,32.3,29.69,NW,315,2.7,-999.0,64,-99.99,,,0.00,Acu-Link.com,2013-02-03 23:18:00,
2013-02-03 18:33:00,43.3,31.2,29.71,West,270,2.7,-999.0,62,-99.99,,,0.00,Acu-Link.com,2013-02-03 23:33:00,
2013-02-03 18:48:00,43.3,29.5,29.71,NNW,337,2.2,-999.0,58,-99.99,,,0.00,Acu-Link.com,2013-02-03 23:48:00,
2013-02-03 19:04:00,42.8,29.1,29.71,NW,315,2.2,-999.0,58,-99.99,,,0.00,Acu-Link.com,2013-02-04 00:04:00,
2013-02-03 19:19:00,41.4,29.0,29.71,NNW,337,0.0,-999.0,61,-99.99,,,0.00,Acu-Link.com,2013-02-04 00:19:00,
2013-02-03 19:35:00,40.5,28.9,29.72,NW,315,0.0,-999.0,63,-99.99,,,0.00,Acu-Link.com,2013-02-04 00:35:00,
2013-02-03 19:50:00,40.3,29.1,29.73,NW,315,1.1,-999.0,64,-99.99,,,0.00,Acu-Link.com,2013-02-04 00:50:00,
2013-02-03 20:05:00,40.3,29.5,29.73,West,270,2.7,-999.0,65,-99.99,,,0.00,Acu-Link.com,2013-02-04 01:05:00,
2013-02-03 20:21:00,40.1,29.3,29.74,WNW,292,1.7,-999.0,65,-99.99,,,0.00,Acu-Link.com,2013-02-04 01:21:00,
2013-02-03 20:36:00,39.4,29.7,29.73,NW,315,2.2,-999.0,68,-99.99,,,0.00,Acu-Link.com,2013-02-04 01:36:00,
2013-02-03 20:51:00,38.7,29.1,29.74,NE,45,1.1,-999.0,68,-99.99,,,0.00,Acu-Link.com,2013-02-04 01:51:00,
2013-02-03 21:06:00,38.5,29.2,29.74,North,0,1.7,-999.0,69,-99.99,,,0.00,Acu-Link.com,2013-02-04 02:06:00,
2013-02-03 21:22:00,38.5,29.2,29.75,NNW,337,1.1,-999.0,69,-99.99,,,0.00,Acu-Link.com,2013-02-04 02:22:00,
2013-02-03 21:37:00,37.9,29.0,29.75,NNW,337,1.7,-999.0,70,-99.99,,,0.00,Acu-Link.com,2013-02-04 02:37:00,
2013-02-03 21:52:00,36.9,28.4,29.75,NNW,337,0.0,-999.0,71,-99.99,,,0.00,Acu-Link.com,2013-02-04 02:52:00,
2013-02-03 22:08:00,35.6,29.7,29.75,West,270,1.1,-999.0,79,-99.99,,,0.00,Acu-Link.com,2013-02-04 03:08:00,
2013-02-03 22:42:00,35.4,28.3,29.74,West,270,2.2,-999.0,75,-99.99,,,0.00,Acu-Link.com,2013-02-04 03:42:00,
2013-02-03 22:57:00,35.6,27.8,29.76,West,270,0.0,-999.0,73,-99.99,,,0.00,Acu-Link.com,2013-02-04 03:57:00,
2013-02-03 23:13:00,34.9,27.5,29.77,NW,315,0.0,-999.0,74,-99.99,,,0.00,Acu-Link.com,2013-02-04 04:13:00,
2013-02-03 23:28:00,34.5,27.7,29.77,NW,315,3.2,-999.0,76,-99.99,,,0.00,Acu-Link.com,2013-02-04 04:28:00,
2013-02-03 23:43:00,35.8,27.0,29.77,NNW,337,4.2,-999.0,70,-99.99,,,0.00,Acu-Link.com,2013-02-04 04:43:00,
2013-02-03 23:58:00,37.0,26.7,29.78,NNW,337,4.2,-999.0,66,-99.99,,,0.00,Acu-Link.com,2013-02-04 04:58:00,